Terminal Aerodrome Forecast
Issued by NWS

Home | Current Version | Previous Version | Graphics & Text | Print | Product List | Glossary On
Versions: 1 2 3 4 5 6 7 8 9 10 11 12 13 14 15
000
FTUS43 KFGF 251700
TAFBJI
TAF
KBJI 251723Z 2518/2618 28007KT P6SM BKN013
      TEMPO 2519/2523 OVC008
     FM261200 33009KT P6SM BKN020=

USA.gov is the U.S. government's official web portal to all federal, state and local government web resources and services.